Time;durP1;ratioP1;P1;durP2;ratioP2;P2;SDS_P1;SDS_P2;PMS_P1;PMS_P2;Temp;Humidity;BMP_temperature;BMP_pressure;BME280_temperature;BME280_humidity;BME280_pressure;Samples;Min_cycle;Max_cycle;Signal;HPM_P1;HPM_P2
2022/03/20 00:00:36;;;;;;;8.57;8.07;;;;;;;-4.12;57.73;103465.13;5036551;28;20021;-63
2022/03/20 00:03:07;;;;;;;7.68;7.28;;;;;;;-4.12;57.77;103467.72;5032332;28;20036;-63
2022/03/20 00:05:34;;;;;;;7.28;6.88;;;;;;;-4.21;58.02;103460.84;5032308;28;20477;-63
2022/03/20 00:08:01;;;;;;;7.18;6.78;;;;;;;-4.19;58.04;103458.25;5032335;28;20029;-63
2022/03/20 00:10:26;;;;;;;7.97;7.55;;;;;;;-4.22;58.41;103451.34;5043725;28;20013;-63
2022/03/20 00:12:52;;;;;;;7.38;6.97;;;;;;;-4.22;58.34;103461.72;5044547;28;20385;-62
2022/03/20 00:15:18;;;;;;;7.80;7.38;;;;;;;-4.31;58.38;103450.56;5032155;28;20052;-63
2022/03/20 00:17:44;;;;;;;8.07;7.57;;;;;;;-4.46;58.59;103446.28;5019446;28;20485;-64
2022/03/20 00:20:10;;;;;;;7.70;7.30;;;;;;;-4.32;58.88;103467.81;5012570;28;20040;-64
2022/03/20 00:22:37;;;;;;;7.88;7.43;;;;;;;-4.37;58.79;103468.72;5023236;28;20408;-63
2022/03/20 00:25:04;;;;;;;7.57;7.18;;;;;;;-4.34;59.15;103468.69;5032052;28;20452;-64
2022/03/20 00:27:29;;;;;;;7.68;7.28;;;;;;;-4.35;59.27;103465.22;5031765;28;20013;-63
2022/03/20 00:29:54;;;;;;;7.10;6.70;;;;;;;-4.41;59.54;103464.41;5032304;28;20033;-63
2022/03/20 00:32:20;;;;;;;7.93;7.45;;;;;;;-4.47;60.00;103460.13;5014747;28;20044;-63
2022/03/20 00:34:46;;;;;;;7.28;6.88;;;;;;;-4.46;60.06;103456.66;5027381;28;20018;-63
2022/03/20 00:37:12;;;;;;;7.43;7.03;;;;;;;-4.50;59.87;103460.13;5012277;28;20022;-63
2022/03/20 00:39:37;;;;;;;7.28;6.88;;;;;;;-4.53;59.76;103457.56;5027366;28;20025;-62
2022/03/20 00:42:04;;;;;;;7.47;7.07;;;;;;;-4.49;60.01;103460.09;5022881;28;20029;-63
2022/03/20 00:44:30;;;;;;;7.68;7.28;;;;;;;-4.45;59.90;103464.41;5030502;28;20104;-64
2022/03/20 00:46:55;;;;;;;7.45;7.05;;;;;;;-4.60;60.46;103445.50;5021001;28;20556;-63
2022/03/20 00:49:21;;;;;;;7.60;7.20;;;;;;;-4.56;60.87;103460.13;5031555;28;20026;-63
2022/03/20 00:51:46;;;;;;;7.90;7.50;;;;;;;-4.63;61.10;103458.44;5031758;28;20026;-63
2022/03/20 00:54:12;;;;;;;7.90;7.43;;;;;;;-4.54;61.87;103461.00;5034851;28;20442;-63
2022/03/20 00:56:38;;;;;;;7.63;7.22;;;;;;;-4.60;62.07;103461.03;5051170;28;20057;-63
2022/03/20 00:59:04;;;;;;;7.10;6.75;;;;;;;-4.49;61.72;103464.44;5040458;28;20025;-63
2022/03/20 01:01:32;;;;;;;7.30;6.90;;;;;;;-4.62;61.88;103453.28;5011796;28;20034;-64
2022/03/20 01:03:58;;;;;;;7.60;7.20;;;;;;;-4.61;61.52;103452.41;5033462;28;20041;-64
2022/03/20 01:06:24;;;;;;;7.90;7.40;;;;;;;-4.59;61.62;103457.56;5033701;28;20485;-63
2022/03/20 01:08:50;;;;;;;7.20;6.82;;;;;;;-4.54;61.23;103446.34;5037841;28;20025;-63
2022/03/20 01:11:16;;;;;;;7.63;7.22;;;;;;;-4.52;61.27;103454.94;5036971;28;20028;-63
2022/03/20 01:13:42;;;;;;;7.32;6.93;;;;;;;-4.59;61.21;103453.25;5027523;28;20560;-63
2022/03/20 01:16:07;;;;;;;8.00;7.55;;;;;;;-4.63;60.85;103450.66;5018427;28;20142;-63
2022/03/20 01:18:33;;;;;;;7.75;7.35;;;;;;;-4.68;60.80;103452.44;5026782;28;20044;-63
2022/03/20 01:20:59;;;;;;;7.35;6.95;;;;;;;-4.72;60.91;103452.41;5038127;28;20033;-63
2022/03/20 01:23:24;;;;;;;7.78;7.38;;;;;;;-4.73;61.20;103445.53;5038068;28;20555;-64
2022/03/20 01:25:51;;;;;;;8.13;7.70;;;;;;;-4.97;61.39;103404.19;5057720;28;20021;-63
2022/03/20 01:28:19;;;;;;;7.70;7.30;;;;;;;-4.73;61.09;103453.28;5040422;28;20026;-63
2022/03/20 01:30:45;;;;;;;7.40;7.00;;;;;;;-4.74;61.39;103446.41;5069973;28;20032;-63
2022/03/20 01:33:11;;;;;;;7.90;7.50;;;;;;;-4.74;61.08;103450.72;5038203;28;20388;-64
2022/03/20 01:35:36;;;;;;;7.55;7.15;;;;;;;-4.75;61.70;103442.09;5036636;28;20025;-63
2022/03/20 01:38:04;;;;;;;7.85;7.43;;;;;;;-4.69;61.77;103438.63;5037806;28;20029;-64
2022/03/20 01:40:30;;;;;;;8.27;7.78;;;;;;;-4.72;61.86;103454.16;5037732;28;20025;-64
2022/03/20 01:42:56;;;;;;;8.10;7.60;;;;;;;-4.70;62.11;103449.84;5036502;28;20499;-63
2022/03/20 01:45:23;;;;;;;7.80;7.35;;;;;;;-4.72;61.91;103436.03;5037799;28;20029;-63
2022/03/20 01:47:50;;;;;;;7.68;7.28;;;;;;;-4.66;62.28;103442.91;5035799;28;20029;-63
2022/03/20 01:50:33;;;;;;;7.50;7.10;;;;;;;-4.74;62.32;103430.84;5037819;28;20029;-63
2022/03/20 01:53:00;;;;;;;8.00;7.60;;;;;;;-4.69;62.41;103445.53;5037493;28;20108;-64
2022/03/20 01:55:27;;;;;;;8.27;7.78;;;;;;;-4.78;62.91;103451.56;5038084;28;20064;-64
2022/03/20 01:57:54;;;;;;;7.57;7.18;;;;;;;-4.79;62.79;103448.13;5018208;28;20030;-63
2022/03/20 02:00:20;;;;;;;7.32;6.93;;;;;;;-4.83;63.06;103436.06;5017860;28;20532;-63
2022/03/20 02:02:46;;;;;;;8.05;7.55;;;;;;;-4.80;63.06;103453.31;5017816;28;20018;-63
2022/03/20 02:05:13;;;;;;;7.70;7.30;;;;;;;-4.77;62.77;103446.41;5023042;28;20036;-63
2022/03/20 02:07:40;;;;;;;7.97;7.53;;;;;;;-4.80;62.60;103441.22;5036249;28;20560;-63
2022/03/20 02:10:10;;;;;;;8.48;7.97;;;;;;;-4.84;62.09;103436.09;5042869;28;20032;-64
2022/03/20 02:12:37;;;;;;;7.60;7.20;;;;;;;-4.76;61.80;103437.78;5057438;28;20079;-63
2022/03/20 02:15:04;;;;;;;8.02;7.63;;;;;;;-4.85;61.20;103437.78;5043720;28;20025;-63
2022/03/20 02:17:30;;;;;;;7.85;7.45;;;;;;;-4.82;61.75;103435.19;5034374;28;20108;-63
2022/03/20 02:20:02;;;;;;;7.78;7.38;;;;;;;-4.74;61.51;103446.41;5035003;28;20079;-63
2022/03/20 02:22:27;;;;;;;7.80;7.40;;;;;;;-4.85;61.83;103439.50;5054468;28;20400;-63
2022/03/20 02:24:53;;;;;;;7.90;7.50;;;;;;;-4.79;61.91;103439.50;5019715;28;20029;-63
2022/03/20 02:27:27;;;;;;;8.00;7.60;;;;;;;-4.82;61.79;103442.97;5017761;28;20021;-63
2022/03/20 02:29:54;;;;;;;7.68;7.28;;;;;;;-4.75;61.79;103443.81;5034227;28;20026;-63
2022/03/20 02:32:23;;;;;;;7.32;6.93;;;;;;;-4.85;61.59;103445.53;5034136;28;20030;-63
2022/03/20 02:34:50;;;;;;;8.40;7.90;;;;;;;-4.92;61.99;103432.63;5034015;28;20079;-63
2022/03/20 02:37:22;;;;;;;8.02;7.60;;;;;;;-4.90;62.18;103436.94;5030361;28;20033;-63
2022/03/20 02:39:49;;;;;;;7.82;7.43;;;;;;;-4.87;61.83;103439.53;5014023;28;20034;-63
2022/03/20 02:42:16;;;;;;;7.47;7.07;;;;;;;-4.87;62.13;103436.06;5026325;28;20495;-63
2022/03/20 02:45:07;;;;;;;8.10;7.63;;;;;;;-4.93;62.33;103436.94;5033848;28;20100;-64
2022/03/20 02:47:35;;;;;;;7.70;7.30;;;;;;;-4.91;62.19;103434.38;5033139;28;20132;-63
2022/03/20 02:50:03;;;;;;;8.27;7.78;;;;;;;-4.94;62.08;103439.53;5032624;28;20033;-63
2022/03/20 02:52:43;;;;;;;7.80;7.40;;;;;;;-4.92;61.89;103433.53;5021017;28;20546;-63
2022/03/20 02:55:09;;;;;;;7.85;7.45;;;;;;;-4.93;62.20;103436.09;5035443;28;20060;-63
2022/03/20 02:57:35;;;;;;;8.40;7.90;;;;;;;-4.93;62.21;103438.69;5053506;28;20150;-63
2022/03/20 03:00:04;;;;;;;8.27;7.78;;;;;;;-4.95;62.18;103438.69;5053458;28;20021;-62
2022/03/20 03:02:34;;;;;;;7.95;7.55;;;;;;;-4.98;62.43;103437.84;5039968;28;20040;-62
2022/03/20 03:05:00;;;;;;;8.40;7.90;;;;;;;-4.96;62.28;103430.94;5028789;28;20021;-62
2022/03/20 03:10:55;;;;;;;8.10;7.70;;;;;;;-4.95;62.73;103440.41;5028975;28;20037;-63
2022/03/20 03:13:09;;;;;;;8.00;7.60;;;;;;;-5.05;63.03;103443.03;5033666;28;20067;-63
2022/03/20 03:15:35;;;;;;;8.48;7.97;;;;;;;-5.03;62.42;103436.13;5033313;28;20104;-63
2022/03/20 03:18:00;;;;;;;8.32;7.82;;;;;;;-5.14;62.71;103429.22;5033291;28;20455;-63
2022/03/20 03:20:27;;;;;;;8.05;7.63;;;;;;;-5.09;62.48;103430.94;5021306;28;20026;-63
2022/03/20 03:22:52;;;;;;;7.90;7.50;;;;;;;-5.02;62.47;103439.56;5013516;28;20436;-62
2022/03/20 03:25:18;;;;;;;7.57;7.18;;;;;;;-5.10;62.89;103437.00;5013131;28;20054;-63
2022/03/20 03:27:43;;;;;;;7.75;7.35;;;;;;;-5.09;63.10;103430.94;5020131;28;20477;-63
2022/03/20 03:30:12;;;;;;;7.97;7.57;;;;;;;-5.11;63.75;103431.81;5033154;28;20101;-63
2022/03/20 03:32:40;;;;;;;7.40;7.00;;;;;;;-5.02;63.94;103429.22;5033291;28;20034;-63
2022/03/20 03:37:50;;;;;;;7.93;7.53;;;;;;;-5.15;65.39;103424.91;5013311;28;20113;-63
2022/03/20 03:40:15;;;;;;;8.23;7.82;;;;;;;-5.01;65.53;103436.09;5013153;28;20101;-63
2022/03/20 03:42:42;;;;;;;7.75;7.35;;;;;;;-5.04;66.27;103424.03;5029006;28;20469;-64
2022/03/20 03:45:08;;;;;;;7.55;7.15;;;;;;;-5.11;66.90;103426.66;5032966;28;20033;-63
2022/03/20 03:47:34;;;;;;;7.80;7.40;;;;;;;-5.21;67.49;103433.56;5028700;28;20033;-63
2022/03/20 03:49:59;;;;;;;7.93;7.53;;;;;;;-5.11;67.56;103450.81;5012982;28;20030;-63
2022/03/20 03:52:25;;;;;;;8.02;7.63;;;;;;;-5.12;66.91;103456.84;5013102;28;20485;-63
2022/03/20 03:54:50;;;;;;;7.15;6.85;;;;;;;-5.20;67.94;103435.28;5029847;28;20051;-63
2022/03/20 03:57:20;;;;;;;8.10;7.70;;;;;;;-5.07;67.82;103436.09;5051112;28;20029;-63
2022/03/20 03:59:46;;;;;;;7.15;6.82;;;;;;;-5.16;67.96;103446.50;5031381;28;20087;-63
2022/03/20 04:02:12;;;;;;;8.00;7.60;;;;;;;-5.23;68.25;103437.88;5024442;28;20489;-63
2022/03/20 04:04:38;;;;;;;7.78;7.38;;;;;;;-5.22;68.52;103439.59;5013576;28;20028;-63
2022/03/20 04:07:04;;;;;;;7.35;7.05;;;;;;;-5.24;68.30;103454.25;5032554;28;20459;-63
2022/03/20 04:09:30;;;;;;;7.50;7.10;;;;;;;-5.20;67.94;103452.56;5035995;28;20112;-63
2022/03/20 04:11:57;;;;;;;7.72;7.32;;;;;;;-5.15;67.83;103459.41;5052332;28;20092;-63
2022/03/20 04:14:22;;;;;;;7.88;7.47;;;;;;;-5.18;68.29;103466.34;5034509;28;20022;-63
2022/03/20 04:16:49;;;;;;;7.65;7.25;;;;;;;-5.22;67.78;103454.25;5019894;28;20038;-64
2022/03/20 04:19:15;;;;;;;8.00;7.57;;;;;;;-5.17;67.78;103462.88;5012610;28;20053;-64
2022/03/20 04:21:40;;;;;;;7.95;7.55;;;;;;;-5.25;68.12;103449.09;5012463;28;20030;-63
2022/03/20 04:24:07;;;;;;;8.55;8.05;;;;;;;-5.17;68.03;103462.88;5012540;28;20049;-62
2022/03/20 04:26:34;;;;;;;7.72;7.32;;;;;;;-5.11;67.65;103468.91;5012498;28;20022;-63
2022/03/20 04:29:00;;;;;;;8.07;7.63;;;;;;;-5.13;67.05;103464.63;5029613;28;20465;-63
2022/03/20 04:31:25;;;;;;;7.72;7.32;;;;;;;-5.11;66.54;103453.38;5014978;28;20036;-63
2022/03/20 04:33:56;;;;;;;8.30;7.82;;;;;;;-5.05;65.82;103465.47;5012181;28;20485;-63
2022/03/20 04:36:23;;;;;;;8.00;7.60;;;;;;;-4.98;65.70;103464.59;5012284;28;20528;-63
2022/03/20 04:38:54;;;;;;;7.38;7.03;;;;;;;-5.01;65.61;103446.47;5012048;28;20033;-63
2022/03/20 04:41:21;;;;;;;8.27;7.88;;;;;;;-4.86;65.44;103438.66;5017112;28;20552;-63
2022/03/20 04:43:48;;;;;;;7.47;7.07;;;;;;;-4.91;65.16;103443.00;5028759;28;20018;-63
2022/03/20 04:46:14;;;;;;;8.57;8.05;;;;;;;-4.78;64.93;103448.97;5015187;28;20038;-63
2022/03/20 04:59:36;;;;;;;7.80;7.40;;;;;;;-3.94;62.71;103454.66;5014456;28;20057;-63
2022/03/20 05:02:02;;;;;;;6.70;6.40;;;;;;;-3.64;61.39;103453.56;5011964;28;20073;-63
2022/03/20 05:04:27;;;;;;;7.32;6.93;;;;;;;-3.45;60.07;103433.53;5027884;28;20462;-64
2022/03/20 05:06:53;;;;;;;7.18;6.80;;;;;;;-3.15;59.12;103455.75;5031454;28;20112;-63
2022/03/20 05:14:47;;;;;;;;;;;;;;;-1.89;54.83;103462.91;5032285;28;20520;-63
2022/03/20 05:17:12;;;;;;;6.32;6.03;;;;;;;-1.78;54.39;103462.72;5031541;28;19944;-64
2022/03/20 05:19:40;;;;;;;6.47;6.18;;;;;;;-1.73;53.09;103471.34;5031573;28;20053;-63
2022/03/20 05:22:10;;;;;;;6.70;6.40;;;;;;;-1.60;52.19;103472.88;5031541;28;20022;-64
2022/03/20 05:24:36;;;;;;;7.60;7.20;;;;;;;-1.43;51.40;103476.06;5031419;28;20025;-64
2022/03/20 05:27:02;;;;;;;6.78;6.47;;;;;;;-1.30;51.62;103457.63;5020930;28;20083;-64
2022/03/20 05:29:28;;;;;;;6.32;6.03;;;;;;;-0.89;50.35;103460.34;5031530;28;20022;-64
2022/03/20 05:31:54;;;;;;;6.75;6.45;;;;;;;-0.66;49.72;103452.09;5029846;28;20040;-64
2022/03/20 05:34:20;;;;;;;7.30;6.90;;;;;;;-0.64;49.96;103454.66;5031339;28;20455;-64
2022/03/20 05:36:46;;;;;;;6.82;6.53;;;;;;;0.01;48.30;103462.00;5031369;28;20128;-64
2022/03/20 05:39:12;;;;;;;6.75;6.45;;;;;;;0.35;47.08;103464.66;5031499;28;20442;-63
2022/03/20 05:41:47;;;;;;;6.28;5.97;;;;;;;0.60;46.88;103447.50;5022343;28;20378;-64
2022/03/20 05:44:17;;;;;;;6.40;6.10;;;;;;;0.09;47.52;103453.09;5031433;28;20025;-63
2022/03/20 05:46:46;;;;;;;6.35;6.05;;;;;;;0.12;48.09;103449.53;5030481;28;20022;-63
2022/03/20 05:49:13;;;;;;;6.60;6.30;;;;;;;0.16;48.11;103465.09;5032053;28;20594;-65
2022/03/20 05:51:40;;;;;;;6.43;6.13;;;;;;;0.63;47.13;103455.25;5035057;28;20051;-64
2022/03/20 05:54:07;;;;;;;6.63;6.32;;;;;;;0.74;46.71;103461.09;5036304;28;20022;-63
2022/03/20 05:59:17;;;;;;;6.85;6.55;;;;;;;1.91;43.93;103462.16;5050989;28;20500;-64
2022/03/20 06:01:43;;;;;;;6.53;6.22;;;;;;;2.20;43.00;103470.84;5034746;28;20034;-63
2022/03/20 06:04:08;;;;;;;6.47;6.18;;;;;;;2.44;42.30;103479.72;5034737;28;20626;-64
2022/03/20 06:06:37;;;;;;;6.72;6.43;;;;;;;2.55;41.15;103495.94;5034363;28;20029;-64
2022/03/20 06:09:04;;;;;;;6.93;6.63;;;;;;;2.51;41.66;103493.47;5024206;28;20026;-64
2022/03/20 06:11:30;;;;;;;7.32;6.93;;;;;;;2.34;42.40;103481.75;5014939;28;20251;-64
2022/03/20 06:13:56;;;;;;;7.50;7.10;;;;;;;2.15;43.02;103484.09;5014682;28;20033;-64
2022/03/20 06:16:22;;;;;;;7.60;7.20;;;;;;;2.30;41.95;103480.16;5014604;28;20022;-64
2022/03/20 06:18:49;;;;;;;6.68;6.38;;;;;;;2.55;41.30;103474.09;5014743;28;20059;-64
2022/03/20 06:21:15;;;;;;;6.75;6.45;;;;;;;2.47;41.64;103482.22;5014741;28;20469;-64
2022/03/20 06:23:40;;;;;;;6.88;6.57;;;;;;;2.72;41.62;103479.66;5014663;28;20030;-64
2022/03/20 06:26:09;;;;;;;7.45;7.05;;;;;;;2.80;40.90;103480.25;5014812;28;20029;-64
2022/03/20 06:28:35;;;;;;;6.72;6.43;;;;;;;3.14;40.40;103485.19;5028627;28;20030;-63
2022/03/20 06:31:01;;;;;;;7.50;7.10;;;;;;;2.89;40.24;103474.69;5034753;28;20431;-64
2022/03/20 06:33:26;;;;;;;7.50;7.10;;;;;;;3.19;40.38;103477.16;5034873;28;20079;-63
2022/03/20 06:35:52;;;;;;;6.93;6.63;;;;;;;4.32;38.28;103484.22;5034857;28;20029;-64
2022/03/20 06:38:19;;;;;;;6.97;6.68;;;;;;;5.46;35.82;103477.63;5014534;28;20117;-63
2022/03/20 06:40:44;;;;;;;6.82;6.53;;;;;;;6.74;34.15;103478.56;5014566;28;20026;-63
2022/03/20 06:43:10;;;;;;;6.70;6.40;;;;;;;7.31;32.98;103473.84;5034622;28;20052;-64
2022/03/20 06:45:36;;;;;;;6.30;6.00;;;;;;;7.84;31.44;103475.38;5034293;28;20655;-64
2022/03/20 06:48:02;;;;;;;6.53;6.22;;;;;;;7.68;31.40;103480.66;5033327;28;20488;-63
2022/03/20 06:50:28;;;;;;;7.90;7.50;;;;;;;8.00;30.64;103484.16;5033469;28;20477;-63
2022/03/20 06:52:53;;;;;;;7.03;6.72;;;;;;;8.09;30.75;103480.16;5032871;28;20040;-64
2022/03/20 06:55:19;;;;;;;7.60;7.20;;;;;;;7.65;31.44;103478.19;5043617;28;20759;-63
2022/03/20 06:57:46;;;;;;;7.22;6.93;;;;;;;7.34;30.20;103473.69;5033809;28;20078;-64
2022/03/20 07:00:13;;;;;;;7.28;6.97;;;;;;;7.16;31.77;103479.00;5033111;28;20021;-64
2022/03/20 07:02:39;;;;;;;6.90;6.60;;;;;;;8.48;29.82;103485.00;5047531;28;20036;-64
2022/03/20 07:05:04;;;;;;;7.35;7.05;;;;;;;7.35;31.35;103478.91;5044879;28;20018;-64
2022/03/20 07:07:30;;;;;;;6.78;6.47;;;;;;;7.79;30.43;103480.09;5033485;28;20112;-64
2022/03/20 07:09:55;;;;;;;7.70;7.30;;;;;;;7.88;30.69;103485.72;5040400;28;20039;-65
2022/03/20 07:12:21;;;;;;;7.40;7.10;;;;;;;8.92;29.69;103465.66;5053252;28;20021;-64
2022/03/20 07:14:47;;;;;;;7.43;7.13;;;;;;;9.33;28.61;103477.25;5053372;28;20028;-64
2022/03/20 07:17:15;;;;;;;7.43;7.13;;;;;;;9.92;28.02;103470.00;5052964;28;20024;-64
2022/03/20 07:19:43;;;;;;;7.70;7.30;;;;;;;9.45;28.51;103472.97;5027084;28;20037;-64
2022/03/20 07:22:10;;;;;;;7.28;6.97;;;;;;;10.01;28.41;103470.34;5013082;28;20088;-65
2022/03/20 07:24:37;;;;;;;7.60;7.28;;;;;;;9.63;28.81;103469.19;5013166;28;20037;-66
2022/03/20 07:29:49;;;;;;;7.40;7.10;;;;;;;10.20;27.94;103473.50;5032828;28;20028;-64
2022/03/20 07:32:15;;;;;;;7.85;7.45;;;;;;;10.66;26.83;103466.03;5032067;28;20025;-66
2022/03/20 07:34:43;;;;;;;6.85;6.55;;;;;;;9.04;27.63;103465.78;5013133;28;20030;-64
2022/03/20 07:37:10;;;;;;;8.15;7.75;;;;;;;9.54;28.08;103467.09;5012886;28;20033;-64
2022/03/20 07:39:36;;;;;;;7.68;7.32;;;;;;;10.67;26.53;103475.72;5012646;28;20456;-64
2022/03/20 07:42:02;;;;;;;7.50;7.20;;;;;;;12.54;24.88;103483.69;5023201;28;20025;-64
2022/03/20 07:44:31;;;;;;;7.28;6.97;;;;;;;12.53;24.66;103477.50;5031093;28;20099;-64
2022/03/20 07:46:58;;;;;;;7.30;7.00;;;;;;;12.65;24.38;103476.59;5030180;28;20025;-65
2022/03/20 07:49:24;;;;;;;7.38;7.07;;;;;;;13.71;23.01;103469.19;5032205;28;20223;-65
2022/03/20 07:51:50;;;;;;;6.97;6.68;;;;;;;14.34;23.02;103480.94;5032393;28;20108;-65
2022/03/20 07:54:16;;;;;;;7.80;7.50;;;;;;;13.33;22.70;103466.94;5035936;28;20021;-65
2022/03/20 07:56:42;;;;;;;7.30;7.00;;;;;;;14.87;21.83;103470.25;5052022;28;20053;-65
2022/03/20 07:59:09;;;;;;;7.47;7.18;;;;;;;14.89;21.45;103462.94;5035007;28;20052;-65
2022/03/20 08:01:36;;;;;;;7.38;7.07;;;;;;;15.84;20.75;103465.34;5021671;28;20026;-66
2022/03/20 08:04:03;;;;;;;7.10;6.80;;;;;;;15.49;21.39;103461.25;5012888;28;20025;-64
2022/03/20 08:06:29;;;;;;;7.15;6.85;;;;;;;15.88;21.01;103466.78;5028610;28;20029;-64
2022/03/20 08:08:59;;;;;;;7.13;6.82;;;;;;;16.02;20.44;103461.03;5030759;28;20404;-64
2022/03/20 08:11:29;;;;;;;7.35;7.05;;;;;;;14.88;20.56;103452.41;5051386;28;20029;-64
2022/03/20 08:13:55;;;;;;;7.10;6.80;;;;;;;15.60;21.30;103454.97;5050507;28;20112;-65
2022/03/20 08:16:22;;;;;;;7.30;7.00;;;;;;;16.55;19.96;103446.38;5019358;28;20109;-66
2022/03/20 08:18:49;;;;;;;7.30;7.00;;;;;;;16.01;19.89;103440.59;5012322;28;20057;-65
2022/03/20 08:21:14;;;;;;;7.10;6.80;;;;;;;16.68;19.37;103433.50;5012350;28;20132;-65
2022/03/20 08:23:41;;;;;;;7.10;6.80;;;;;;;17.10;18.76;103431.28;5012180;28;20029;-65
2022/03/20 08:26:08;;;;;;;7.95;7.65;;;;;;;14.65;20.32;103428.50;5012268;28;20017;-66
2022/03/20 08:28:41;;;;;;;7.75;7.45;;;;;;;16.46;19.62;103436.50;5024694;28;20031;-66
2022/03/20 08:31:08;;;;;;;7.30;7.00;;;;;;;16.61;18.56;103408.28;5011898;28;20101;-65
2022/03/20 08:33:35;;;;;;;7.00;6.70;;;;;;;16.01;18.47;103421.84;5012177;28;20390;-64
2022/03/20 08:36:02;;;;;;;7.40;7.10;;;;;;;16.27;19.12;103418.59;5012409;28;20030;-64
2022/03/20 08:38:28;;;;;;;7.47;7.18;;;;;;;17.03;18.35;103406.03;5012648;28;20053;-64
2022/03/20 08:40:54;;;;;;;7.30;7.00;;;;;;;17.29;18.31;103411.59;5030311;28;20067;-65
2022/03/20 08:43:21;;;;;;;7.25;6.95;;;;;;;17.07;17.91;103394.03;5024902;28;20075;-64
2022/03/20 08:45:47;;;;;;;7.50;7.20;;;;;;;15.73;19.26;103395.88;5011951;28;20029;-65
2022/03/20 08:48:12;;;;;;;7.95;7.65;;;;;;;16.11;19.49;103394.22;5031001;28;20047;-65
2022/03/20 08:50:38;;;;;;;8.05;7.68;;;;;;;15.73;18.80;103391.38;5031926;28;20522;-65
2022/03/20 08:53:04;;;;;;;7.63;7.32;;;;;;;14.79;19.63;103381.03;5031549;28;20064;-65
2022/03/20 08:55:33;;;;;;;7.65;7.35;;;;;;;14.33;20.55;103375.09;5045760;28;20037;-65
2022/03/20 08:57:59;;;;;;;7.57;7.28;;;;;;;15.22;19.89;103377.28;5028058;28;20032;-64
2022/03/20 09:00:25;;;;;;;7.70;7.40;;;;;;;15.33;19.73;103377.16;5011731;28;20466;-64
2022/03/20 09:02:51;;;;;;;7.43;7.13;;;;;;;15.13;19.96;103373.56;5010685;28;20033;-64
2022/03/20 09:05:18;;;;;;;7.60;7.30;;;;;;;14.84;19.97;103366.31;5018041;28;20025;-64
2022/03/20 09:07:46;;;;;;;8.48;8.07;;;;;;;14.48;18.95;103356.13;5031280;28;20029;-64
2022/03/20 09:10:16;;;;;;;8.00;7.60;;;;;;;14.96;18.82;103355.50;5040772;28;20025;-65
2022/03/20 09:12:43;;;;;;;7.53;7.22;;;;;;;14.56;19.39;103346.47;5017400;28;20022;-64
2022/03/20 09:15:17;;;;;;;7.18;6.88;;;;;;;14.47;19.23;103346.38;5011848;28;20036;-65
2022/03/20 09:20:30;;;;;;;7.55;7.25;;;;;;;15.15;19.40;103353.75;5011501;28;20136;-64
2022/03/20 09:22:55;;;;;;;7.53;7.22;;;;;;;15.41;18.75;103354.09;5011911;28;20104;-64
2022/03/20 09:25:21;;;;;;;8.00;7.60;;;;;;;15.14;18.58;103349.41;5015628;28;20037;-64
2022/03/20 09:27:51;;;;;;;7.80;7.43;;;;;;;15.66;19.20;103343.91;5022626;28;20021;-64
2022/03/20 09:30:18;;;;;;;7.93;7.53;;;;;;;15.06;20.09;103341.22;5035167;28;20049;-65
2022/03/20 09:32:44;;;;;;;7.35;7.05;;;;;;;14.94;19.10;103328.91;5035077;28;20032;-64
2022/03/20 09:35:11;;;;;;;7.50;7.20;;;;;;;14.78;19.70;103317.88;5034894;28;20045;-64
2022/03/20 09:37:37;;;;;;;7.82;7.43;;;;;;;14.20;19.83;103322.88;5034526;28;20028;-65
2022/03/20 09:40:04;;;;;;;8.13;7.72;;;;;;;14.14;19.95;103318.88;5034439;28;20477;-65
2022/03/20 09:42:30;;;;;;;7.47;7.18;;;;;;;12.80;21.29;103313.91;5034614;28;20098;-64
2022/03/20 09:44:56;;;;;;;8.25;7.85;;;;;;;11.88;21.85;103305.84;5034998;28;20554;-64
2022/03/20 09:47:23;;;;;;;7.60;7.30;;;;;;;13.17;21.28;103310.00;5033993;28;20074;-64
2022/03/20 09:49:50;;;;;;;7.25;6.95;;;;;;;13.33;21.18;103298.13;5033561;28;20036;-65
2022/03/20 09:52:19;;;;;;;7.80;7.40;;;;;;;11.75;22.47;103277.59;5034818;28;20022;-64
2022/03/20 09:54:45;;;;;;;7.63;7.28;;;;;;;11.93;22.48;103281.56;5033813;28;20057;-63
2022/03/20 09:57:11;;;;;;;7.95;7.55;;;;;;;11.59;22.96;103273.41;5054638;28;20427;-64
2022/03/20 09:59:39;;;;;;;8.82;8.38;;;;;;;12.72;22.39;103278.06;5054343;28;20033;-64
2022/03/20 10:02:09;;;;;;;8.30;7.90;;;;;;;12.60;22.06;103267.53;5052665;28;20021;-64
2022/03/20 10:05:04;;;;;;;8.00;7.60;;;;;;;11.54;22.82;103266.78;5053363;28;20412;-64
2022/03/20 10:07:35;;;;;;;;;;;;;;;11.31;23.48;103287.03;5034507;28;20017;-64
2022/03/20 10:10:15;;;;;;;7.30;7.00;;;;;;;11.45;23.11;103272.75;5042121;28;20073;-66
2022/03/20 10:12:44;;;;;;;8.13;7.72;;;;;;;11.43;23.54;103267.53;5054150;28;20021;-64
2022/03/20 10:15:28;;;;;;;6.95;6.65;;;;;;;11.76;23.07;103258.88;5054564;28;20033;-64
2022/03/20 10:18:08;;;;;;;7.05;6.75;;;;;;;10.89;24.09;103259.13;5053222;28;20505;-64
2022/03/20 10:20:46;;;;;;;7.60;7.22;;;;;;;11.00;24.20;103265.34;5054127;28;20511;-64
2022/03/20 10:23:34;;;;;;;7.75;7.35;;;;;;;10.33;24.04;103258.66;5016793;28;20026;-64
2022/03/20 10:26:06;;;;;;;7.13;6.82;;;;;;;9.74;24.91;103256.44;5014491;28;20054;-64
2022/03/20 10:28:36;;;;;;;8.07;7.68;;;;;;;10.56;24.59;103255.25;5027662;28;20090;-64
2022/03/20 10:31:05;;;;;;;8.20;7.80;;;;;;;10.66;24.28;103256.31;5033922;28;20092;-64
2022/03/20 10:33:30;;;;;;;7.32;7.03;;;;;;;9.49;24.84;103228.06;5033107;28;20034;-64
2022/03/20 10:36:14;;;;;;;7.50;7.20;;;;;;;8.44;26.33;103242.72;5025518;28;20496;-64
2022/03/20 10:38:45;;;;;;;7.40;7.10;;;;;;;8.41;26.53;103233.19;5029472;28;20068;-64
2022/03/20 10:41:19;;;;;;;7.15;6.85;;;;;;;9.29;25.60;103232.03;5023934;28;20148;-64
2022/03/20 10:43:45;;;;;;;7.38;7.07;;;;;;;9.48;25.14;103220.22;5034037;28;20100;-64
2022/03/20 10:46:25;;;;;;;8.50;8.10;;;;;;;9.06;25.72;103214.13;5034665;28;20112;-65
2022/03/20 10:48:53;;;;;;;7.72;7.32;;;;;;;10.33;24.49;103213.56;5053684;28;20127;-64
2022/03/20 10:51:26;;;;;;;8.18;7.78;;;;;;;9.13;25.22;103237.47;5034737;28;20550;-64
2022/03/20 10:54:01;;;;;;;7.45;7.15;;;;;;;9.32;24.97;103207.97;5033737;28;20068;-64
2022/03/20 10:56:26;;;;;;;7.72;7.32;;;;;;;10.11;24.62;103204.41;5053226;28;20068;-64
2022/03/20 10:58:52;;;;;;;7.32;7.00;;;;;;;9.47;25.12;103190.19;5053396;28;20017;-64
2022/03/20 11:01:17;;;;;;;7.38;7.07;;;;;;;9.89;24.85;103197.06;5053583;28;20037;-65
2022/03/20 11:03:46;;;;;;;7.10;6.80;;;;;;;9.17;25.05;103192.22;5043794;28;20477;-65
2022/03/20 11:06:13;;;;;;;7.13;6.82;;;;;;;9.43;25.09;103194.03;5027591;28;20061;-63
2022/03/20 11:08:39;;;;;;;7.10;6.80;;;;;;;9.67;24.70;103197.69;5033769;28;20026;-64
2022/03/20 11:11:10;;;;;;;7.25;6.95;;;;;;;10.30;24.44;103197.84;5049971;28;20112;-65
2022/03/20 11:13:40;;;;;;;7.70;7.30;;;;;;;10.06;24.34;103182.66;5051776;28;20017;-65
2022/03/20 11:16:08;;;;;;;7.10;6.80;;;;;;;9.13;25.05;103207.50;5053290;28;20044;-64
2022/03/20 11:18:38;;;;;;;7.10;6.80;;;;;;;8.62;25.41;103187.84;5030325;28;20037;-64
2022/03/20 11:21:04;;;;;;;7.53;7.13;;;;;;;8.46;25.79;103182.66;5013169;28;20029;-64
2022/03/20 11:23:32;;;;;;;7.57;7.18;;;;;;;9.09;25.57;103174.19;5013415;28;20355;-64
2022/03/20 11:26:01;;;;;;;7.45;7.10;;;;;;;9.73;24.90;103174.38;5013161;28;20164;-64
2022/03/20 11:28:30;;;;;;;7.70;7.30;;;;;;;10.47;24.55;103163.00;5025728;28;20092;-64
2022/03/20 11:30:58;;;;;;;8.00;7.60;;;;;;;10.35;24.36;103158.56;5032805;28;20021;-65
2022/03/20 11:33:24;;;;;;;7.32;6.97;;;;;;;9.90;23.99;103159.00;5015132;28;20029;-64
2022/03/20 11:35:52;;;;;;;6.95;6.65;;;;;;;9.34;24.97;103146.97;5013321;28;20037;-63
2022/03/20 11:38:26;;;;;;;7.22;6.93;;;;;;;9.07;24.91;103157.56;5029675;28;20485;-64
2022/03/20 11:41:10;;;;;;;7.35;7.05;;;;;;;9.88;23.90;103150.31;5032602;28;20033;-64
2022/03/20 11:43:38;;;;;;;7.20;6.90;;;;;;;8.84;25.10;103145.81;5032580;28;20092;-64
2022/03/20 11:46:32;;;;;;;9.38;8.88;;;;;;;9.73;24.45;103143.41;5031411;28;20064;-65
2022/03/20 11:49:13;;;;;;;7.55;7.15;;;;;;;10.38;24.68;103143.28;5032132;28;20096;-64
2022/03/20 11:52:03;;;;;;;7.15;6.85;;;;;;;8.74;25.43;103147.34;5020162;28;20029;-64
2022/03/20 11:54:50;;;;;;;7.72;7.32;;;;;;;9.73;24.99;103142.56;5023267;28;20032;-63
2022/03/20 11:57:31;;;;;;;7.07;6.78;;;;;;;9.60;24.25;103138.09;5052309;28;20358;-64
2022/03/20 12:00:11;;;;;;;7.80;7.40;;;;;;;8.96;25.36;103136.22;5052338;28;20025;-64